Weather observations for the past three days for
Clarence E Page Municipal Airport
Imperial (Metric)
Date Time (cdt) Wind (mph) Vis. (mi.) Weather Sky Cond. Temperature (ºF) Relative Humidity Wind Chill (°F) Heat Index (°F) Pressure Precipitation (in)
Air Dwpt 6 hour altimeter (in) sea level (mb) 1 hr 3 hr 6 hr
Max. Min.
08 20:15 SE 9 10.00 Fair CLR 66.2 59 78% 29.77 0.0
08 19:55 S 7 G 13 10.00 Fair CLR 68 62.6 83% 29.77 0.0
08 19:35 Calm 10.00 Partly Cloudy SCT100 69.8 62.6 78% 29.75 0.0
08 19:15 S 5 10.00 Thunderstorm in Vicinity OVC100 69.8 62.6 78% 29.73 0.0
08 18:55 SE 7 G 17 10.00 Mostly Cloudy BKN100 68 60.8 78% 29.73 0.0
08 18:35 SE 6 10.00 Thunderstorm in Vicinity FEW033 FEW055 SCT080 69.8 60.8 73% 29.72 0.0
08 18:15 Calm 1.25 Thunderstorm in Vicinity Rain SCT003 BKN055 OVC075 60.8 59 94% 29.73 0.0
08 17:55 NE 10 G 18 5.00 Thunderstorm FEW003 SCT055 BKN100 59 57.2 94% 29.74 0.0
08 17:35 N 38 G 46 6.00 Thunderstorm and Windy FEW003 FEW060 SCT075 75.2 55.4 50% 78 29.74 0.0
08 17:15 S 12 10.00 Thunderstorm in Vicinity CLR 80.6 53.6 39% 80 29.7 0.0
08 16:55 S 7 G 15 10.00 Fair CLR 82.4 53.6 37% 81 29.71 0.0
08 16:35 S 10 G 17 9.00 Fair CLR 84.2 55.4 37% 83 29.73 0.0
08 16:15 SW 8 G 20 10.00 Fair CLR 84.2 55.4 37% 83 29.75 0.0
08 15:55 SW 9 G 18 10.00 Fair CLR 84.2 55.4 37% 83 29.76 0.0
08 15:35 SW 12 G 21 10.00 Fair CLR 84.2 55.4 37% 83 29.77 0.0
08 15:15 SW 13 10.00 Fair CLR 82.4 55.4 40% 82 29.78 0.0
08 14:55 SW 13 10.00 Fair CLR 82.4 57.2 42% 82 29.79 0.0
08 14:35 SW 14 G 21 10.00 Fair CLR 80.6 57.2 45% 81 29.79 0.0
08 14:15 SW 9 G 18 10.00 Fair CLR 80.6 57.2 45% 81 29.79 0.0
08 13:55 SW 14 G 21 9.00 Fair CLR 78.8 57.2 48% 80 29.8 0.0
08 13:35 SW 13 10.00 Fair CLR 78.8 55.4 45% 79 29.81 0.0
08 13:15 S 14 10.00 Fair CLR 78.8 55.4 45% 79 29.81 0.0
08 12:55 S 16 G 25 10.00 Fair CLR 77 55.4 47% 79 29.83 0.0
08 12:35 S 16 G 23 10.00 Fair CLR 77 53.6 44% 78 29.83 0.0
08 12:15 S 15 G 26 10.00 Fair CLR 75.2 53.6 47% 78 29.84 0.0
08 11:55 SW 18 G 25 10.00 Partly Cloudy SCT029 73.4 53.6 50% 29.85 0.0
08 11:35 SW 20 G 28 10.00 Partly Cloudy SCT029 73.4 51.8 47% 29.86 0.0
08 11:15 S 20 G 28 10.00 A Few Clouds FEW028 73.4 50 44% 29.87 0.0
08 10:55 S 18 G 26 10.00 Fair CLR 71.6 48.2 44% 29.88 0.0
08 10:35 SW 20 G 26 10.00 Fair CLR 71.6 48.2 44% 29.88 0.0
08 10:15 S 18 G 25 10.00 Fair CLR 68 50 53% 29.9 0.0
08 09:55 SW 18 G 28 10.00 Fair CLR 68 50 53% 29.91 0.0
08 09:35 S 16 G 24 10.00 Fair CLR 66.2 50 56% 29.91 0.0
08 09:15 S 15 G 25 10.00 Fair CLR 64.4 50 60% 29.91 0.0
08 08:55 S 18 G 24 10.00 Fair CLR 64.4 50 60% 29.91 0.0
08 08:35 S 16 10.00 Fair CLR 62.6 50 64% 29.91 0.0
08 08:15 S 14 10.00 Fair CLR 59 50 72% 29.91 0.0
08 07:55 S 12 10.00 Fair CLR 57.2 50 77% 29.92 0.0
08 07:35 S 10 10.00 Fair CLR 55.4 50 82% 29.91 0.0
08 07:15 S 10 10.00 Fair CLR 53.6 50 88% 29.91 0.0
08 06:55 S 8 10.00 Fair CLR 51.8 48.2 88% 29.91 0.0
08 06:35 S 8 10.00 Fair CLR 51.8 48.2 88% 29.91 0.0
08 06:15 S 9 G 15 10.00 Fair CLR 53.6 50 88% 29.9 0.0
08 05:55 S 9 10.00 Fair CLR 53.6 48.2 82% 29.9 0.0
08 05:35 S 10 10.00 Fair CLR 53.6 48.2 82% 29.9 0.0
08 05:15 S 10 10.00 Fair CLR 53.6 48.2 82% 29.9 0.0
08 04:55 SW 9 10.00 Fair CLR 55.4 48.2 77% 29.9 0.0
08 04:35 SW 9 10.00 Fair CLR 55.4 48.2 77% 29.9 0.0
08 04:15 SW 10 10.00 Fair CLR 55.4 48.2 77% 29.9 0.0
08 03:55 SW 9 10.00 Fair CLR 55.4 48.2 77% 29.9 0.0
08 03:35 S 12 G 17 10.00 Fair CLR 55.4 48.2 77% 29.89 0.0
08 03:15 S 12 10.00 Fair CLR 55.4 48.2 77% 29.9 0.0
08 02:55 S 9 10.00 Fair CLR 53.6 46.4 77% 29.91 0.0
08 02:35 S 9 10.00 Fair CLR 55.4 46.4 72% 29.91 0.0
08 02:15 S 12 10.00 Fair CLR 55.4 46.4 72% 29.92 0.0
08 01:55 S 7 10.00 Fair CLR 55.4 46.4 72% 29.92 0.0
08 01:35 S 9 10.00 Fair CLR 55.4 44.6 67% 29.93 0.0
08 01:15 S 13 10.00 Fair CLR 57.2 44.6 63% 29.94 0.0
08 00:55 S 9 G 16 10.00 Fair CLR 57.2 42.8 59% 29.94 0.0
08 00:35 S 12 10.00 Fair CLR 55.4 42.8 63% 29.93 0.0
08 00:15 S 12 10.00 Fair CLR 55.4 42.8 63% 29.93 0.0
07 23:55 S 12 10.00 NULL NULL 57.2 42.8 59% 29.94 0.0
07 23:35 S 9 10.00 Fair CLR 55.4 42.8 63% 29.94 0.0
07 23:15 S 9 10.00 Fair CLR 55.4 42.8 63% 29.94 0.0
07 22:55 S 9 10.00 Fair CLR 57.2 42.8 59% 29.94 0.0
07 22:35 S 10 10.00 Fair CLR 59 41 51% 29.94 0.0
07 22:15 S 10 10.00 Fair CLR 59 41 51% 29.94 0.0
07 21:55 S 10 10.00 Fair CLR 59 41 51% 29.94 0.0
07 21:35 S 10 10.00 Fair CLR 59 39.2 48% 29.93 0.0
07 21:15 SE 10 10.00 Fair CLR 59 39.2 48% 29.93 0.0
07 20:55 SE 8 10.00 Fair CLR 60.8 39.2 45% 29.93 0.0
07 20:35 S 9 10.00 Fair CLR 64.4 39.2 40% 29.93 0.0
07 20:15 S 10 10.00 Fair CLR 66.2 39.2 37% 29.92 0.0
07 19:55 S 9 5.00 Fair with Haze CLR 68 39.2 35% 29.92 0.0
07 19:35 S 8 4.00 Fair with Haze CLR 71.6 39.2 31% 29.92 0.0
07 19:15 S 7 5.00 Fair with Haze CLR 73.4 37.4 27% 29.91 0.0
07 18:55 SW 5 7.00 Fair CLR 75.2 33.8 22% 76 29.91 0.0
07 18:35 SW 8 6.00 Fair with Haze CLR 75.2 35.6 24% 76 29.91 0.0
07 18:15 Vrbl 5 8.00 Fair CLR 75.2 33.8 22% 76 29.92 0.0
07 17:55 W 6 6.00 Fair with Haze CLR 75.2 33.8 22% 76 29.93 0.0
07 17:35 Vrbl 6 G 14 6.00 Fair with Haze CLR 75.2 33.8 22% 76 29.93 0.0
07 17:15 SW 9 9.00 Fair CLR 75.2 33.8 22% 76 29.93 0.0
07 16:55 SW 8 G 16 10.00 Fair CLR 75.2 35.6 24% 76 29.94 0.0
07 16:35 NW 5 G 16 10.00 Fair CLR 75.2 33.8 22% 76 29.94 0.0
07 16:15 NW 10 G 17 10.00 Fair CLR 75.2 35.6 24% 76 29.95 0.0
07 15:15 SW 9 10.00 Fair CLR 73.4 37.4 27% 29.98 0.0
07 14:55 SW 9 G 17 10.00 Fair CLR 71.6 39.2 31% 30 0.0
07 14:35 Calm 10.00 Fair CLR 71.6 35.6 27% 30 0.0
07 14:15 SW 8 G 18 10.00 Fair CLR 71.6 37.4 29% 30.02 0.0
07 13:55 W 13 10.00 Fair CLR 69.8 39.2 33% 30.03 0.0
07 13:35 Vrbl 7 G 17 10.00 Fair CLR 69.8 39.2 33% 30.04 0.0
07 13:15 NW 9 G 18 10.00 Fair CLR 69.8 37.4 31% 30.04 0.0
07 12:55 W 14 10.00 Fair CLR 68 39.2 35% 30.05 0.0
07 12:35 SW 13 G 20 10.00 Fair CLR 68 39.2 35% 30.06 0.0
07 12:15 SW 10 G 17 10.00 Fair CLR 66.2 39.2 37% 30.07 0.0
07 11:55 SW 10 G 18 10.00 Fair CLR 64.4 39.2 40% 30.08 0.0
07 11:35 SW 13 10.00 Fair CLR 64.4 39.2 40% 30.09 0.0
07 11:15 SW 8 G 16 10.00 Fair CLR 62.6 39.2 42% 30.09 0.0
07 10:55 SW 9 10.00 Fair CLR 62.6 39.2 42% 30.1 0.0
07 10:35 Vrbl 6 G 16 10.00 Fair CLR 62.6 39.2 42% 30.1 0.0
07 10:15 S 10 10.00 Fair CLR 60.8 37.4 42% 30.11 0.0
07 09:55 Vrbl 7 G 14 10.00 Fair CLR 59 37.4 45% 30.12 0.0
07 09:35 Vrbl 7 10.00 Fair CLR 59 39.2 48% 30.12 0.0
07 09:15 SW 7 10.00 Fair CLR 57.2 39.2 51% 30.13 0.0
07 08:55 Calm 10.00 Fair CLR 55.4 41 59% 30.13 0.0
07 08:35 W 5 10.00 Fair CLR 53.6 42.8 67% 30.14 0.0
07 08:15 Calm 9.00 Fair CLR 50 42.8 76% 30.14 0.0
07 07:55 Calm 9.00 A Few Clouds FEW055 46.4 41 82% 30.13 0.0
07 07:35 Calm 10.00 Mostly Cloudy BKN055 42.8 39.2 87% 30.12 0.0
07 07:15 W 6 10.00 Partly Cloudy SCT055 41 37.4 87% 38 30.12 0.0
07 06:55 SW 5 10.00 A Few Clouds FEW055 41 37.4 87% 38 30.11 0.0
07 06:35 W 3 10.00 Partly Cloudy SCT055 39.2 37.4 93% 30.11 0.0
07 06:15 W 5 10.00 A Few Clouds FEW055 41 37.4 87% 38 30.11 0.0
07 05:55 W 3 10.00 Fair CLR 42.8 39.2 87% 30.11 0.0
07 05:35 Calm 10.00 Fair CLR 42.8 37.4 81% 30.1 0.0
07 05:15 NW 5 9.00 Fair CLR 44.6 39.2 81% 43 30.1 0.0
07 04:55 NW 7 10.00 Fair CLR 42.8 39.2 87% 39 30.1 0.0
07 04:35 NW 6 10.00 A Few Clouds FEW100 42.8 39.2 87% 40 30.1 0.0
07 04:15 NW 6 10.00 Fair CLR 42.8 39.2 87% 40 30.1 0.0
07 03:55 NW 5 10.00 A Few Clouds FEW120 42.8 39.2 87% 41 30.09 0.0
07 03:35 NW 7 10.00 Fair CLR 44.6 39.2 81% 41 30.09 0.0
07 03:15 NW 6 10.00 Fair CLR 44.6 39.2 81% 42 30.09 0.0
07 02:55 NW 5 10.00 Fair CLR 44.6 39.2 81% 43 30.09 0.0
07 02:35 Calm 10.00 Fair CLR 44.6 39.2 81% 30.1 0.0
07 02:15 Calm 10.00 Fair CLR 44.6 39.2 81% 30.1 0.0
07 01:55 Calm 10.00 Fair CLR 44.6 39.2 81% 30.11 0.0
07 01:35 SE 3 10.00 Fair CLR 46.4 37.4 71% 30.1 0.0
07 01:15 NE 5 10.00 Fair CLR 48.2 37.4 66% 47 30.11 0.0
07 00:55 NE 5 10.00 Partly Cloudy SCT065 46.4 37.4 71% 45 30.11 0.0
07 00:35 N 6 10.00 Mostly Cloudy BKN065 48.2 39.2 71% 46 30.12 0.0
07 00:15 NE 6 10.00 Mostly Cloudy BKN065 48.2 37.4 66% 46 30.11 0.0
06 23:55 NE 6 10.00 Fair CLR 48.2 37.4 66% 46 30.11 0.0
06 23:35 N 6 10.00 Fair CLR 50 37.4 62% 48 30.11 0.0
06 23:15 N 5 10.00 Fair CLR 50 39.2 67% 49 30.1 0.0
06 22:55 NE 9 10.00 Fair CLR 50 39.2 67% 47 30.07 0.0
06 22:35 NE 8 10.00 Fair CLR 50 39.2 67% 47 30.07 0.0
06 22:15 NE 7 10.00 Fair CLR 50 39.2 67% 48 30.08 0.0
06 21:55 NE 7 10.00 Fair CLR 50 39.2 67% 48 30.07 0.0
06 21:35 NE 8 10.00 Fair CLR 51.8 39.2 62% 30.06 0.0
06 21:15 NE 8 10.00 Fair CLR 51.8 39.2 62% 30.05 0.0
06 20:55 NE 9 10.00 Fair CLR 53.6 39.2 58% 30.04 0.0
06 20:35 NE 8 10.00 A Few Clouds FEW055 53.6 39.2 58% 30.03 0.0
06 20:15 NE 8 10.00 Fair CLR 57.2 39.2 51% 30.03 0.0
06 19:55 NE 10 G 16 10.00 A Few Clouds FEW055 59 39.2 48% 30.02 0.0
06 19:35 NE 12 10.00 A Few Clouds FEW055 60.8 39.2 45% 30.02 0.0
06 19:15 N 10 G 16 10.00 A Few Clouds FEW055 FEW120 62.6 39.2 42% 30.02 0.0
06 18:55 NE 12 G 20 10.00 Partly Cloudy SCT055 SCT120 62.6 39.2 42% 30.01 0.0
06 18:35 NE 14 G 21 10.00 Partly Cloudy SCT110 64.4 39.2 40% 30.01 0.0
06 18:15 N 9 G 16 10.00 Mostly Cloudy BKN110 64.4 39.2 40% 30 0.0
06 17:55 NE 12 G 20 10.00 A Few Clouds FEW120 64.4 39.2 40% 30 0.0
06 17:35 NE 10 G 20 10.00 Partly Cloudy SCT120 64.4 39.2 40% 29.99 0.0
06 17:15 NE 10 G 18 10.00 A Few Clouds FEW120 64.4 39.2 40% 29.98 0.0
06 16:55 NE 16 10.00 Fair CLR 64.4 39.2 40% 29.99 0.0
06 16:35 NE 13 10.00 Partly Cloudy SCT048 64.4 39.2 40% 29.99 0.0
06 16:15 NE 14 10.00 Partly Cloudy SCT048 64.4 41 43% 29.99 0.0
06 15:55 NE 13 10.00 Mostly Cloudy BKN045 62.6 39.2 42% 30 0.0
06 15:35 N 12 G 20 10.00 Mostly Cloudy BKN045 64.4 41 43% 30.01 0.0
06 15:15 N 9 G 23 10.00 Mostly Cloudy BKN046 62.6 41 45% 30.01 0.0
06 14:55 NE 15 10.00 Overcast OVC045 60.8 41 48% 30.02 0.0
06 14:35 NE 16 10.00 Overcast OVC042 60.8 41 48% 30.01 0.0
06 14:15 NE 14 G 21 10.00 Overcast OVC042 60.8 39.2 45% 30.03 0.0
06 13:55 NE 16 10.00 Overcast OVC041 60.8 41 48% 30.03 0.0
06 13:35 E 16 10.00 Overcast OVC043 60.8 39.2 45% 30.03 0.0
06 13:15 E 14 G 23 10.00 Overcast OVC042 60.8 39.2 45% 30.03 0.0
06 12:55 NE 14 G 20 10.00 Mostly Cloudy BKN041 60.8 39.2 45% 30.04 0.0
06 12:35 E 18 10.00 Mostly Cloudy BKN040 60.8 39.2 45% 30.04 0.0
06 12:15 E 13 G 22 10.00 Partly Cloudy SCT038 59 39.2 48% 30.05 0.0
06 11:55 E 15 G 22 10.00 A Few Clouds FEW037 59 39.2 48% 30.04 0.0
06 11:35 E 18 G 26 10.00 A Few Clouds FEW034 57.2 39.2 51% 30.05 0.0
06 11:15 NE 16 G 23 10.00 A Few Clouds FEW033 55.4 39.2 55% 30.05 0.0
06 10:55 E 21 10.00 Partly Cloudy and Breezy SCT029 55.4 39.2 55% 30.05 0.0
06 10:35 NE 17 G 24 10.00 Mostly Cloudy BKN027 55.4 39.2 55% 30.05 0.0
06 10:15 E 17 10.00 Overcast BKN023 OVC027 53.6 41 63% 30.04 0.0
06 09:55 NE 17 10.00 Overcast BKN020 OVC024 51.8 41 67% 30.03 0.0
06 09:35 NE 15 G 23 10.00 Overcast OVC020 51.8 41 67% 30.03 0.0
06 09:15 NE 17 G 24 10.00 Overcast OVC020 50 41 71% 45 30.02 0.0
06 08:55 NE 18 10.00 Overcast OVC020 50 41 71% 44 30.02 0.0
06 08:35 NE 14 G 21 10.00 Overcast BKN018 OVC023 48.2 42.8 82% 43 30.03 0.0
06 08:15 NE 14 10.00 Mostly Cloudy BKN018 48.2 42.8 82% 43 30.03 0.0
06 07:55 NE 13 G 23 10.00 Mostly Cloudy BKN018 48.2 42.8 82% 43 30.03 0.0
06 07:35 NE 15 G 22 10.00 Overcast OVC018 48.2 42.8 82% 43 30.02 0.0
06 07:15 N 14 G 20 10.00 Overcast OVC021 48.2 42.8 82% 43 30 0.0
06 06:55 NE 15 10.00 Overcast BKN021 OVC028 46.4 41 82% 41 29.99 0.0
06 06:35 NE 12 10.00 Mostly Cloudy BKN017 BKN022 46.4 41 82% 42 29.99 0.0
06 06:15 NE 12 10.00 A Few Clouds FEW021 FEW025 FEW031 46.4 41 82% 42 29.99 0.0
06 05:55 NE 10 G 17 10.00 Mostly Cloudy FEW023 BKN040 46.4 41 82% 42 29.98 0.0
06 05:35 N 14 10.00 Overcast FEW020 OVC040 48.2 41 76% 43 29.99 0.0
06 05:15 N 10 10.00 Overcast SCT021 BKN036 OVC042 48.2 41 76% 44 30 0.0
06 04:55 N 9 10.00 Overcast BKN022 OVC031 48.2 41 76% 45 29.99 0.0
06 04:35 N 10 10.00 Overcast BKN024 BKN030 OVC042 48.2 41 76% 44 29.98 0.0
06 04:15 N 10 G 17 10.00 Overcast BKN025 OVC032 48.2 39.2 71% 44 29.96 0.0
06 03:55 NE 12 10.00 Overcast BKN026 BKN033 OVC041 48.2 39.2 71% 44 29.96 0.0
06 03:35 N 13 G 22 10.00 Overcast OVC039 48.2 39.2 71% 43 29.95 0.0
06 03:15 N 14 10.00 Overcast OVC037 48.2 39.2 71% 43 29.93 0.0
06 02:55 N 16 10.00 Overcast OVC037 48.2 39.2 71% 43 29.92 0.0
06 02:35 NE 15 10.00 Overcast OVC037 48.2 39.2 71% 43 29.91 0.0
06 02:15 NE 10 G 16 10.00 Overcast OVC036 48.2 39.2 71% 44 29.92 0.0
06 01:55 NE 10 10.00 Overcast OVC034 48.2 39.2 71% 44 29.91 0.0
06 01:15 NE 15 10.00 Overcast OVC033 48.2 37.4 66% 43 29.92 0.0
06 00:55 NE 15 G 22 10.00 Overcast OVC032 48.2 37.4 66% 43 29.92 0.0
06 00:35 NE 14 G 22 10.00 Overcast OVC031 48.2 37.4 66% 43 29.92 0.0
06 00:15 NE 13 G 22 10.00 Overcast OVC031 48.2 37.4 66% 43 29.9 0.0
05 23:55 NE 16 10.00 Overcast OVC030 48.2 39.2 71% 43 29.91 0.0
05 23:35 NE 15 10.00 Overcast OVC030 48.2 39.2 71% 43 29.91 0.0
05 23:15 NE 14 G 22 10.00 Overcast OVC028 48.2 39.2 71% 43 29.91 0.0
05 22:55 NE 16 G 24 10.00 Overcast BKN022 OVC027 48.2 41 76% 43 29.91 0.0
05 22:35 NE 17 10.00 Overcast OVC019 48.2 41 76% 42 29.91 0.0
05 22:15 NE 20 10.00 Overcast OVC016 48.2 42.8 82% 42 29.89 0.0
05 21:55 NE 20 10.00 Overcast OVC015 48.2 42.8 82% 42 29.87 0.0
05 21:35 NE 21 10.00 Overcast and Breezy OVC015 48.2 42.8 82% 42 29.87 0.0
05 21:15 N 22 10.00 Overcast and Breezy OVC014 48.2 42.8 82% 41 29.87 0.0
05 20:55 N 15 G 22 10.00 Overcast OVC014 48.2 42.8 82% 43 29.87 0.0
05 20:35 N 18 10.00 Overcast OVC016 48.2 42.8 82% 42 29.86 0.0
Date Time (cdt) Wind (mph) Vis. (mi.) Weather Sky Cond. Air Dwpt Max. Min. Relative Humidity Wind Chill (°F) Heat Index (°F) altimeter (in) sea level (mb) 1 hr 3 hr 6 hr
6 hour
Temperature (ºF) Pressure Precipitation (in)